createdAt,value
2019-03-23T00:00:35.467Z,0.00
2019-03-23T00:01:35.418Z,0.00
2019-03-23T00:02:35.372Z,0.00
2019-03-23T00:03:35.334Z,0.00
2019-03-23T00:04:35.332Z,0.00
2019-03-23T00:05:35.237Z,0.00
2019-03-23T00:06:35.197Z,0.00
2019-03-23T00:07:35.188Z,0.00
2019-03-23T00:08:35.119Z,0.00
2019-03-23T00:09:35.082Z,0.00
2019-03-23T00:10:35.094Z,0.00
2019-03-23T00:11:34.994Z,0.00
2019-03-23T00:12:34.952Z,0.00
2019-03-23T00:13:34.903Z,0.00
2019-03-23T00:14:34.895Z,0.00
2019-03-23T00:15:34.829Z,0.00
2019-03-23T00:16:34.795Z,0.00
2019-03-23T00:17:34.734Z,0.00
2019-03-23T00:18:34.688Z,0.00
2019-03-23T00:19:34.679Z,0.00
2019-03-23T00:20:34.612Z,0.00
2019-03-23T00:21:34.572Z,0.00
2019-03-23T00:22:34.530Z,0.00
2019-03-23T00:23:34.490Z,0.00
2019-03-23T00:24:34.454Z,0.00
2019-03-23T00:25:34.414Z,0.00
2019-03-23T00:26:34.347Z,0.00
2019-03-23T00:27:34.333Z,0.00
2019-03-23T00:28:34.261Z,0.00
2019-03-23T00:29:34.224Z,0.00
2019-03-23T00:30:34.203Z,0.00
2019-03-23T00:31:34.135Z,0.00
2019-03-23T00:32:34.091Z,0.00
2019-03-23T00:33:34.056Z,0.00
2019-03-23T00:34:34.009Z,0.00
2019-03-23T00:35:34.005Z,0.00
2019-03-23T00:36:41.516Z,0.00
2019-03-23T00:37:33.873Z,0.00
2019-03-23T00:38:33.853Z,0.00
2019-03-23T00:39:33.787Z,0.00
2019-03-23T00:40:33.762Z,0.00
2019-03-23T00:41:33.706Z,0.00
2019-03-23T00:42:33.694Z,0.00
2019-03-23T00:43:33.625Z,0.00
2019-03-23T00:44:33.571Z,0.00
2019-03-23T00:45:33.531Z,0.00
2019-03-23T00:46:33.500Z,0.00
2019-03-23T00:47:33.455Z,0.00
2019-03-23T00:48:33.426Z,0.00
2019-03-23T00:49:33.356Z,0.00
2019-03-23T00:50:33.323Z,0.00
2019-03-23T00:51:33.275Z,0.00
2019-03-23T00:52:33.276Z,0.00
2019-03-23T00:53:33.197Z,0.00
2019-03-23T00:54:33.157Z,0.00
2019-03-23T00:55:33.109Z,0.00
2019-03-23T00:56:33.075Z,0.00
2019-03-23T00:57:33.015Z,0.00
2019-03-23T00:58:33.009Z,0.00
2019-03-23T00:59:32.956Z,0.00
2019-03-23T01:00:32.898Z,0.00
2019-03-23T01:01:32.852Z,0.00
2019-03-23T01:02:32.833Z,0.00
2019-03-23T01:03:32.755Z,0.00
2019-03-23T01:04:32.729Z,0.00
2019-03-23T01:05:32.684Z,0.00
2019-03-23T01:06:32.633Z,0.00
2019-03-23T01:07:32.590Z,0.00
2019-03-23T01:08:32.579Z,0.00
2019-03-23T01:09:32.498Z,0.00
2019-03-23T01:10:32.488Z,0.00
2019-03-23T01:11:32.410Z,0.00
2019-03-23T01:12:32.406Z,0.00
2019-03-23T01:13:32.334Z,0.00
2019-03-23T01:14:32.287Z,0.00
2019-03-23T01:15:32.246Z,0.00
2019-03-23T01:16:32.222Z,0.00
2019-03-23T01:17:32.165Z,0.00
2019-03-23T01:18:32.121Z,0.00
2019-03-23T01:19:32.097Z,0.00
2019-03-23T01:20:32.022Z,0.00
2019-03-23T01:21:32.016Z,0.00
2019-03-23T01:22:31.938Z,0.00
2019-03-23T01:23:31.894Z,0.00
2019-03-23T01:24:31.862Z,0.00
2019-03-23T01:25:31.875Z,0.00
2019-03-23T01:26:31.774Z,0.00
2019-03-23T01:27:31.760Z,0.00
2019-03-23T01:28:31.692Z,0.00
2019-03-23T01:29:31.641Z,0.00
2019-03-23T01:30:31.595Z,0.00
2019-03-23T01:31:31.554Z,0.00
2019-03-23T01:32:31.514Z,0.00
2019-03-23T01:33:31.510Z,0.00
2019-03-23T01:34:31.455Z,0.00
2019-03-23T01:35:31.372Z,0.00
2019-03-23T01:36:31.361Z,0.00
2019-03-23T01:37:31.303Z,0.00
2019-03-23T01:38:31.260Z,0.00
2019-03-23T01:39:31.217Z,0.00
2019-03-23T01:40:31.163Z,0.00
2019-03-23T01:41:31.145Z,0.00
2019-03-23T01:42:31.075Z,0.00
2019-03-23T01:43:31.034Z,0.00
2019-03-23T01:44:31.022Z,0.00
2019-03-23T01:45:30.964Z,0.00
2019-03-23T01:46:30.913Z,0.00
2019-03-23T01:47:30.862Z,0.00
2019-03-23T01:48:30.818Z,0.00
2019-03-23T01:49:30.774Z,0.00
2019-03-23T01:50:30.762Z,0.00
2019-03-23T01:51:30.691Z,0.00
2019-03-23T01:52:30.645Z,0.00
2019-03-23T01:53:30.621Z,0.00
2019-03-23T01:54:30.598Z,0.00
2019-03-23T01:55:30.515Z,0.00
2019-03-23T01:56:30.475Z,0.00
2019-03-23T01:57:30.456Z,0.00
2019-03-23T01:58:30.414Z,0.00
2019-03-23T01:59:30.375Z,0.00
2019-03-23T02:00:30.326Z,0.00
2019-03-23T02:01:30.255Z,0.00
2019-03-23T02:02:30.219Z,0.00
2019-03-23T02:03:30.169Z,0.00
2019-03-23T02:04:30.164Z,0.00
2019-03-23T02:05:30.089Z,0.00
2019-03-23T02:06:30.041Z,0.00
2019-03-23T02:07:29.994Z,0.00
2019-03-23T02:08:29.956Z,0.00
2019-03-23T02:09:29.918Z,0.00
2019-03-23T02:10:29.918Z,0.00
2019-03-23T02:11:29.823Z,0.00
2019-03-23T02:12:29.779Z,0.00
2019-03-23T02:13:29.749Z,0.00
2019-03-23T02:14:29.699Z,0.00
2019-03-23T02:15:29.675Z,0.00
2019-03-23T02:16:29.665Z,0.00
2019-03-23T02:17:29.566Z,0.00
2019-03-23T02:18:29.560Z,0.00
2019-03-23T02:19:29.492Z,0.00
2019-03-23T02:20:29.467Z,0.00
2019-03-23T02:21:29.390Z,0.00
2019-03-23T02:22:29.363Z,0.00
2019-03-23T02:23:29.312Z,0.00
2019-03-23T02:24:29.262Z,0.00
2019-03-23T02:25:29.215Z,0.00
2019-03-23T02:26:29.201Z,0.00
2019-03-23T02:27:29.139Z,0.00
2019-03-23T02:28:29.102Z,0.00
2019-03-23T02:29:29.055Z,0.00
2019-03-23T02:30:29.024Z,0.00
2019-03-23T02:31:28.992Z,0.00
2019-03-23T02:32:28.939Z,0.00
2019-03-23T02:33:28.871Z,0.00
2019-03-23T02:34:28.829Z,0.00
2019-03-23T02:35:28.788Z,0.00
2019-03-23T02:36:28.762Z,0.00
2019-03-23T02:37:28.729Z,0.00
2019-03-23T02:38:28.685Z,0.00
2019-03-23T02:39:28.611Z,0.00
2019-03-23T02:40:28.573Z,0.00
2019-03-23T02:41:28.534Z,0.00
2019-03-23T02:42:28.525Z,0.00
2019-03-23T02:43:28.447Z,0.00
2019-03-23T02:44:28.418Z,0.00
2019-03-23T02:45:30.361Z,0.00
2019-03-23T02:46:28.322Z,0.00
2019-03-23T02:47:28.266Z,0.00
2019-03-23T02:48:28.259Z,0.00
2019-03-23T02:49:28.193Z,0.00
2019-03-23T02:50:28.145Z,0.00
2019-03-23T02:51:28.106Z,0.00
2019-03-23T02:52:28.080Z,0.00
2019-03-23T02:53:28.020Z,0.00
2019-03-23T02:54:28.009Z,0.00
2019-03-23T02:55:27.974Z,0.00
2019-03-23T02:56:27.889Z,0.00
2019-03-23T02:57:27.869Z,0.00
2019-03-23T02:58:27.839Z,0.00
2019-03-23T02:59:27.793Z,0.00
2019-03-23T03:00:27.784Z,0.00
2019-03-23T03:01:27.672Z,0.00
2019-03-23T03:02:27.638Z,0.00
2019-03-23T03:03:27.596Z,0.00
2019-03-23T03:04:27.563Z,0.00
2019-03-23T03:05:27.506Z,0.00
2019-03-23T03:06:27.455Z,0.00
2019-03-23T03:07:40.646Z,0.00
2019-03-23T03:08:27.371Z,0.00
2019-03-23T03:09:27.353Z,0.00
2019-03-23T03:10:27.278Z,0.00
2019-03-23T03:11:27.240Z,0.00
2019-03-23T03:12:27.202Z,0.00
2019-03-23T03:13:27.160Z,0.00
2019-03-23T03:14:27.116Z,0.00
2019-03-23T03:15:27.106Z,0.00
2019-03-23T03:16:27.031Z,0.00
2019-03-23T03:17:26.979Z,0.00
2019-03-23T03:18:26.932Z,0.00
2019-03-23T03:19:26.910Z,0.00
2019-03-23T03:20:26.851Z,0.00
2019-03-23T03:21:26.836Z,0.00
2019-03-23T03:22:26.772Z,0.00
2019-03-23T03:23:26.727Z,0.00
2019-03-23T03:24:26.676Z,0.00
2019-03-23T03:25:26.635Z,0.00
2019-03-23T03:26:26.633Z,0.00
2019-03-23T03:27:26.555Z,0.00
2019-03-23T03:28:26.499Z,0.00
2019-03-23T03:29:26.497Z,0.00
2019-03-23T03:30:26.456Z,0.00
2019-03-23T03:31:26.436Z,0.00
2019-03-23T03:32:26.393Z,0.00
2019-03-23T03:33:26.291Z,0.00
2019-03-23T03:34:26.274Z,0.00
2019-03-23T03:35:26.205Z,0.00
2019-03-23T03:36:26.171Z,0.00
2019-03-23T03:37:26.196Z,0.00
2019-03-23T03:38:26.095Z,0.00
2019-03-23T03:39:26.032Z,0.00
2019-03-23T03:40:26.001Z,0.00
2019-03-23T03:41:25.969Z,0.00
2019-03-23T03:42:25.920Z,0.00
2019-03-23T03:43:25.883Z,0.00
2019-03-23T03:44:25.822Z,0.00
2019-03-23T03:45:25.781Z,0.00
2019-03-23T03:46:25.732Z,0.00
2019-03-23T03:47:25.700Z,0.00
2019-03-23T03:48:25.663Z,0.00
2019-03-23T03:49:25.620Z,0.00
2019-03-23T03:50:25.566Z,0.00
2019-03-23T03:51:25.512Z,0.00
2019-03-23T03:52:25.477Z,0.00
2019-03-23T03:53:25.455Z,0.00
2019-03-23T03:54:25.400Z,0.00
2019-03-23T03:55:25.360Z,0.00
2019-03-23T03:56:25.298Z,0.00
2019-03-23T03:57:25.266Z,0.00
2019-03-23T03:58:25.245Z,0.00
2019-03-23T03:59:25.171Z,0.00
2019-03-23T04:00:25.122Z,0.00
2019-03-23T04:01:25.100Z,0.00
2019-03-23T04:02:25.039Z,0.00
2019-03-23T04:03:25.019Z,0.00
2019-03-23T04:04:25.001Z,0.00
2019-03-23T04:05:24.918Z,0.00
2019-03-23T04:06:24.874Z,0.00
2019-03-23T04:07:24.833Z,0.00
2019-03-23T04:08:24.788Z,0.00
2019-03-23T04:09:24.739Z,0.00
2019-03-23T04:10:24.750Z,0.00
2019-03-23T04:11:24.652Z,0.00
2019-03-23T04:12:24.616Z,0.00
2019-03-23T04:13:24.581Z,0.00
2019-03-23T04:14:24.548Z,0.00
2019-03-23T04:15:24.490Z,0.00
2019-03-23T04:16:24.440Z,0.00
2019-03-23T04:17:24.404Z,0.00
2019-03-23T04:18:24.368Z,0.00
2019-03-23T04:19:24.349Z,0.00
2019-03-23T04:20:24.265Z,0.00
2019-03-23T04:21:24.224Z,0.00
2019-03-23T04:22:24.184Z,0.00
2019-03-23T04:23:24.148Z,0.00
2019-03-23T04:24:24.124Z,0.00
2019-03-23T04:25:24.085Z,0.00
2019-03-23T04:26:24.018Z,0.00
2019-03-23T04:27:23.980Z,0.00
2019-03-23T04:28:23.925Z,0.00
2019-03-23T04:29:23.880Z,0.00
2019-03-23T04:30:23.877Z,0.00
2019-03-23T04:31:23.813Z,0.00
2019-03-23T04:32:23.754Z,0.00
2019-03-23T04:33:23.708Z,0.00
2019-03-23T04:34:23.674Z,0.00
2019-03-23T04:35:23.622Z,0.00
2019-03-23T04:36:23.619Z,0.00
2019-03-23T04:37:23.555Z,0.00
2019-03-23T04:38:23.503Z,0.00
2019-03-23T04:39:23.460Z,0.00
2019-03-23T04:40:23.412Z,0.00
2019-03-23T04:41:23.394Z,0.00
2019-03-23T04:42:23.366Z,0.00
2019-03-23T04:43:23.285Z,0.00
2019-03-23T04:44:23.257Z,0.00
2019-03-23T04:45:23.205Z,0.00
2019-03-23T04:46:23.153Z,0.00
2019-03-23T04:47:23.135Z,0.00
2019-03-23T04:48:23.077Z,0.00
2019-03-23T04:49:23.029Z,0.00
2019-03-23T04:50:22.997Z,0.00
2019-03-23T04:51:22.947Z,0.00
2019-03-23T04:52:22.896Z,0.00
2019-03-23T04:53:22.877Z,0.00
2019-03-23T04:54:22.815Z,0.00
2019-03-23T04:55:22.770Z,0.00
2019-03-23T04:56:23.722Z,0.00
2019-03-23T04:57:22.708Z,0.00
2019-03-23T04:58:22.676Z,0.00
2019-03-23T04:59:22.637Z,0.00
2019-03-23T05:00:22.557Z,0.00
2019-03-23T05:01:22.523Z,0.00
2019-03-23T05:02:22.478Z,4.00
2019-03-23T05:03:22.439Z,4.00
2019-03-23T05:04:22.432Z,0.00
2019-03-23T05:05:22.344Z,4.00
2019-03-23T05:06:22.302Z,4.00
2019-03-23T05:07:22.258Z,4.00
2019-03-23T05:08:32.586Z,4.00
2019-03-23T05:09:22.178Z,8.00
2019-03-23T05:10:22.144Z,4.00
2019-03-23T05:11:22.092Z,8.00
2019-03-23T05:12:22.057Z,8.00
2019-03-23T05:13:22.000Z,8.00
2019-03-23T05:14:21.982Z,12.00
2019-03-23T05:15:21.927Z,12.00
2019-03-23T05:16:21.884Z,16.00
2019-03-23T05:17:21.837Z,16.00
2019-03-23T05:18:21.796Z,20.00
2019-03-23T05:19:21.773Z,24.00
2019-03-23T05:20:21.708Z,28.00
2019-03-23T05:21:21.669Z,32.00
2019-03-23T05:22:21.622Z,36.00
2019-03-23T05:23:21.588Z,44.00
2019-03-23T05:24:21.529Z,52.00
2019-03-23T05:25:21.515Z,56.00
2019-03-23T05:26:21.447Z,60.00
2019-03-23T05:27:21.427Z,68.00
2019-03-23T05:28:21.369Z,72.00
2019-03-23T05:29:21.325Z,80.00
2019-03-23T05:30:21.307Z,96.00
2019-03-23T05:31:21.241Z,104.00
2019-03-23T05:32:21.202Z,112.00
2019-03-23T05:33:21.151Z,128.00
2019-03-23T05:34:21.117Z,128.00
2019-03-23T05:35:21.091Z,140.00
2019-03-23T05:36:21.028Z,148.00
2019-03-23T05:37:20.983Z,160.00
2019-03-23T05:38:20.944Z,172.00
2019-03-23T05:39:20.901Z,180.00
2019-03-23T05:40:20.883Z,192.00
2019-03-23T05:41:20.827Z,192.00
2019-03-23T05:42:20.774Z,204.00
2019-03-23T05:43:20.732Z,212.00
2019-03-23T05:44:20.682Z,248.00
2019-03-23T05:45:20.697Z,288.00
2019-03-23T05:46:20.641Z,292.00
2019-03-23T05:47:20.570Z,276.00
2019-03-23T05:48:20.527Z,272.00
2019-03-23T05:49:20.478Z,312.00
2019-03-23T05:50:20.427Z,388.00
2019-03-23T05:51:20.421Z,472.00
2019-03-23T05:52:20.352Z,500.00
2019-03-23T05:53:20.331Z,484.00
2019-03-23T05:54:20.264Z,480.00
2019-03-23T05:55:20.229Z,488.00
2019-03-23T05:56:20.171Z,492.00
2019-03-23T05:57:20.157Z,496.00
2019-03-23T05:58:20.092Z,512.00
2019-03-23T05:59:20.053Z,540.00
2019-03-23T06:00:20.014Z,548.00
2019-03-23T06:01:19.994Z,548.00
2019-03-23T06:02:19.926Z,536.00
2019-03-23T06:03:19.891Z,532.00
2019-03-23T06:04:19.836Z,568.00
2019-03-23T06:05:19.792Z,584.00
2019-03-23T06:06:19.810Z,636.00
2019-03-23T06:07:19.736Z,716.00
2019-03-23T06:08:19.668Z,780.00
2019-03-23T06:09:19.623Z,796.00
2019-03-23T06:10:19.577Z,828.00
2019-03-23T06:11:19.557Z,832.00
2019-03-23T06:12:19.503Z,788.00
2019-03-23T06:13:19.460Z,756.00
2019-03-23T06:14:19.458Z,760.00
2019-03-23T06:15:19.375Z,840.00
2019-03-23T06:16:19.392Z,960.00
2019-03-23T06:17:19.283Z,1024.00
2019-03-23T06:18:19.239Z,1036.00
2019-03-23T06:19:19.202Z,1028.00
2019-03-23T06:20:19.186Z,1024.00
2019-03-23T06:21:19.171Z,1020.00
2019-03-23T06:22:19.079Z,1064.00
2019-03-23T06:23:19.030Z,1052.00
2019-03-23T06:24:18.990Z,1016.00
2019-03-23T06:25:18.994Z,1052.00
2019-03-23T06:26:18.935Z,1100.00
2019-03-23T06:27:18.867Z,1072.00
2019-03-23T06:28:18.814Z,1064.00
2019-03-23T06:29:18.775Z,1140.00
2019-03-23T06:30:18.761Z,1188.00
2019-03-23T06:31:18.687Z,1220.00
2019-03-23T06:32:20.658Z,1236.00
2019-03-23T06:33:18.615Z,1240.00
2019-03-23T06:34:18.575Z,1212.00
2019-03-23T06:35:18.528Z,1180.00
2019-03-23T06:36:18.503Z,1148.00
2019-03-23T06:37:18.434Z,1156.00
2019-03-23T06:38:18.406Z,1184.00
2019-03-23T06:39:18.360Z,1260.00
2019-03-23T06:40:18.309Z,1328.00
2019-03-23T06:41:18.287Z,1400.00
2019-03-23T06:42:18.222Z,1440.00
2019-03-23T06:43:18.180Z,1476.00
2019-03-23T06:44:18.458Z,1460.00
2019-03-23T06:45:18.113Z,1352.00
2019-03-23T06:46:18.087Z,1324.00
2019-03-23T06:47:18.015Z,1408.00
2019-03-23T06:48:17.971Z,1572.00
2019-03-23T06:49:17.925Z,1696.00
2019-03-23T06:50:17.889Z,1764.00
2019-03-23T06:51:17.847Z,1752.00
2019-03-23T06:52:17.839Z,1660.00
2019-03-23T06:53:17.767Z,1660.00
2019-03-23T06:54:17.725Z,1728.00
2019-03-23T06:55:17.680Z,1752.00
2019-03-23T06:56:17.639Z,1784.00
2019-03-23T06:57:17.599Z,1788.00
2019-03-23T06:58:17.579Z,1804.00
2019-03-23T06:59:17.510Z,1876.00
2019-03-23T07:00:17.460Z,1896.00
2019-03-23T07:01:17.425Z,1856.00
2019-03-23T07:02:17.408Z,1816.00
2019-03-23T07:03:17.337Z,1844.00
2019-03-23T07:04:17.299Z,1908.00
2019-03-23T07:05:17.268Z,1912.00
2019-03-23T07:06:17.213Z,1876.00
2019-03-23T07:07:17.175Z,1856.00
2019-03-23T07:08:17.155Z,1864.00
2019-03-23T07:09:17.081Z,1912.00
2019-03-23T07:10:17.057Z,2012.00
2019-03-23T07:11:17.003Z,2040.00
2019-03-23T07:12:16.955Z,1912.00
2019-03-23T07:13:16.911Z,1964.00
2019-03-23T07:14:16.890Z,2124.00
2019-03-23T07:15:20.253Z,2188.00
2019-03-23T07:16:16.792Z,2328.00
2019-03-23T07:17:16.752Z,2696.00
2019-03-23T07:18:16.712Z,2820.00
2019-03-23T07:19:16.741Z,2780.00
2019-03-23T07:20:16.618Z,2660.00
2019-03-23T07:21:16.585Z,2596.00
2019-03-23T07:22:16.536Z,2604.00
2019-03-23T07:23:16.497Z,2720.00
2019-03-23T07:24:16.491Z,2972.00
2019-03-23T07:25:16.427Z,3452.00
2019-03-23T07:26:16.375Z,3856.00
2019-03-23T07:27:16.323Z,3916.00
2019-03-23T07:28:16.294Z,3812.00
2019-03-23T07:29:16.253Z,3716.00
2019-03-23T07:30:16.270Z,3696.00
2019-03-23T07:31:16.190Z,3776.00
2019-03-23T07:32:16.112Z,4132.00
2019-03-23T07:33:16.079Z,4236.00
2019-03-23T07:34:16.067Z,4080.00
2019-03-23T07:35:16.039Z,4072.00
2019-03-23T07:36:15.951Z,4252.00
2019-03-23T07:37:15.954Z,4340.00
2019-03-23T07:38:15.867Z,4520.00
2019-03-23T07:39:26.484Z,4876.00
2019-03-23T07:40:15.874Z,5048.00
2019-03-23T07:41:15.789Z,4900.00
2019-03-23T07:42:15.707Z,4740.00
2019-03-23T07:43:15.656Z,4772.00
2019-03-23T07:44:15.613Z,4788.00
2019-03-23T07:45:15.568Z,4936.00
2019-03-23T07:46:15.549Z,5232.00
2019-03-23T07:47:15.532Z,5348.00
2019-03-23T07:48:15.452Z,5332.00
2019-03-23T07:49:15.432Z,5428.00
2019-03-23T07:50:15.383Z,5632.00
2019-03-23T07:51:15.354Z,5848.00
2019-03-23T07:52:15.278Z,6024.00
2019-03-23T07:53:15.239Z,6172.00
2019-03-23T07:54:15.197Z,6444.00
2019-03-23T07:55:15.158Z,6788.00
2019-03-23T07:56:15.122Z,7160.00
2019-03-23T07:57:15.101Z,7144.00
2019-03-23T07:58:15.061Z,6680.00
2019-03-23T07:59:14.988Z,6624.00
2019-03-23T08:00:14.954Z,7012.00
2019-03-23T08:01:14.915Z,7280.00
2019-03-23T08:02:14.897Z,7500.00
2019-03-23T08:03:14.857Z,7940.00
2019-03-23T08:04:14.784Z,8116.00
2019-03-23T08:05:14.797Z,7848.00
2019-03-23T08:06:14.758Z,7808.00
2019-03-23T08:07:14.663Z,7952.00
2019-03-23T08:08:14.623Z,7740.00
2019-03-23T08:09:20.395Z,7384.00
2019-03-23T08:10:14.543Z,7168.00
2019-03-23T08:11:14.523Z,6952.00
2019-03-23T08:12:14.456Z,7324.00
2019-03-23T08:13:14.475Z,8044.00
2019-03-23T08:14:14.383Z,7780.00
2019-03-23T08:15:14.337Z,7008.00
2019-03-23T08:16:14.290Z,7004.00
2019-03-23T08:17:14.249Z,7388.00
2019-03-23T08:18:14.261Z,7556.00
2019-03-23T08:19:14.185Z,7684.00
2019-03-23T08:20:14.130Z,7676.00
2019-03-23T08:21:14.089Z,7572.00
2019-03-23T08:22:14.055Z,7824.00
2019-03-23T08:23:14.003Z,8064.00
2019-03-23T08:24:13.987Z,8068.00
2019-03-23T08:25:13.918Z,8316.00
2019-03-23T08:26:13.901Z,8484.00
2019-03-23T08:27:13.836Z,8308.00
2019-03-23T08:28:13.803Z,8468.00
2019-03-23T08:29:13.766Z,9136.00
2019-03-23T08:30:13.737Z,9920.00
2019-03-23T08:31:13.723Z,10504.00
2019-03-23T08:32:13.664Z,10508.00
2019-03-23T08:33:13.604Z,10336.00
2019-03-23T08:34:13.602Z,10388.00
2019-03-23T08:35:13.521Z,10240.00
2019-03-23T08:36:13.474Z,9932.00
2019-03-23T08:37:13.622Z,9728.00
2019-03-23T08:38:13.392Z,9520.00
2019-03-23T08:39:13.378Z,9432.00
2019-03-23T08:40:13.314Z,9420.00
2019-03-23T08:41:13.285Z,9140.00
2019-03-23T08:42:13.257Z,8964.00
2019-03-23T08:43:13.197Z,9008.00
2019-03-23T08:44:13.148Z,9172.00
2019-03-23T08:45:13.105Z,9476.00
2019-03-23T08:46:13.077Z,9348.00
2019-03-23T08:47:13.064Z,8984.00
2019-03-23T08:48:12.986Z,8596.00
2019-03-23T08:49:12.944Z,8680.00
2019-03-23T08:50:12.907Z,9072.00
2019-03-23T08:51:12.866Z,9340.00
2019-03-23T08:52:12.834Z,8928.00
2019-03-23T08:53:12.823Z,8768.00
2019-03-23T08:54:12.751Z,9404.00
2019-03-23T08:55:12.720Z,9704.00
2019-03-23T08:56:12.663Z,9624.00
2019-03-23T08:57:12.625Z,9616.00
2019-03-23T08:58:12.583Z,10188.00
2019-03-23T08:59:12.598Z,10420.00
2019-03-23T09:00:12.509Z,10316.00
2019-03-23T09:01:12.475Z,9816.00
2019-03-23T09:02:12.429Z,9504.00
2019-03-23T09:03:12.402Z,9740.00
2019-03-23T09:04:12.374Z,10024.00
2019-03-23T09:05:12.309Z,9916.00
2019-03-23T09:06:12.264Z,9896.00
2019-03-23T09:07:12.231Z,10100.00
2019-03-23T09:08:12.207Z,10004.00
2019-03-23T09:09:12.139Z,9988.00
2019-03-23T09:10:12.102Z,9984.00
2019-03-23T09:11:20.178Z,9864.00
2019-03-23T09:12:12.025Z,9524.00
2019-03-23T09:13:12.018Z,9624.00
2019-03-23T09:14:11.946Z,9928.00
2019-03-23T09:15:11.903Z,9876.00
2019-03-23T09:16:11.859Z,9656.00
2019-03-23T09:17:11.819Z,9664.00
2019-03-23T09:18:11.784Z,10216.00
2019-03-23T09:19:11.764Z,10728.00
2019-03-23T09:20:11.702Z,11028.00
2019-03-23T09:21:12.975Z,11272.00
2019-03-23T09:22:11.616Z,11088.00
2019-03-23T09:23:11.599Z,10432.00
2019-03-23T09:24:11.552Z,10296.00
2019-03-23T09:25:11.526Z,10316.00
2019-03-23T09:26:13.643Z,10176.00
2019-03-23T09:27:12.658Z,9820.00
2019-03-23T09:28:11.379Z,9588.00
2019-03-23T09:29:11.360Z,9384.00
2019-03-23T09:30:11.303Z,9212.00
2019-03-23T09:31:11.276Z,8852.00
2019-03-23T09:32:11.244Z,8204.00
2019-03-23T09:33:11.189Z,8056.00
2019-03-23T09:34:11.136Z,8264.00
2019-03-23T09:35:11.095Z,8500.00
2019-03-23T09:36:11.061Z,8792.00
2019-03-23T09:37:11.055Z,9272.00
2019-03-23T09:38:10.983Z,9600.00
2019-03-23T09:39:10.968Z,9520.00
2019-03-23T09:40:11.562Z,9100.00
2019-03-23T09:41:10.972Z,8836.00
2019-03-23T09:42:10.819Z,8724.00
2019-03-23T09:43:10.778Z,8744.00
2019-03-23T09:44:10.755Z,9072.00
2019-03-23T09:45:10.774Z,9864.00
2019-03-23T09:46:10.660Z,10180.00
2019-03-23T09:47:10.721Z,9660.00
2019-03-23T09:48:10.580Z,9088.00
2019-03-23T09:49:10.587Z,8636.00
2019-03-23T09:50:10.526Z,8364.00
2019-03-23T09:51:10.462Z,8068.00
2019-03-23T09:52:10.436Z,8192.00
2019-03-23T09:53:10.371Z,8696.00
2019-03-23T09:54:10.335Z,8572.00
2019-03-23T09:55:10.297Z,8272.00
2019-03-23T09:56:10.259Z,8372.00
2019-03-23T09:57:10.263Z,8604.00
2019-03-23T09:58:10.180Z,8856.00
2019-03-23T09:59:10.138Z,9048.00
2019-03-23T10:00:10.125Z,9172.00
2019-03-23T10:01:10.053Z,9200.00
2019-03-23T10:02:10.042Z,9140.00
2019-03-23T10:03:09.972Z,8916.00
2019-03-23T10:04:09.939Z,8600.00
2019-03-23T10:05:09.899Z,8472.00
2019-03-23T10:06:09.875Z,8648.00
2019-03-23T10:07:09.813Z,8700.00
2019-03-23T10:08:10.003Z,8472.00
2019-03-23T10:09:09.965Z,8084.00
2019-03-23T10:10:09.711Z,7916.00
2019-03-23T10:11:09.679Z,7676.00
2019-03-23T10:12:09.610Z,7408.00
2019-03-23T10:13:09.568Z,7396.00
2019-03-23T10:14:09.534Z,7768.00
2019-03-23T10:15:09.725Z,8332.00
2019-03-23T10:16:09.478Z,8676.00
2019-03-23T10:17:09.413Z,8636.00
2019-03-23T10:18:09.377Z,8572.00
2019-03-23T10:19:09.340Z,8504.00
2019-03-23T10:20:09.291Z,8400.00
2019-03-23T10:21:09.273Z,8400.00
2019-03-23T10:22:09.216Z,8448.00
2019-03-23T10:23:09.197Z,8440.00
2019-03-23T10:24:09.127Z,8360.00
2019-03-23T10:25:09.085Z,8284.00
2019-03-23T10:26:09.076Z,8020.00
2019-03-23T10:27:09.007Z,7732.00
2019-03-23T10:28:09.053Z,7540.00
2019-03-23T10:29:08.950Z,7536.00
2019-03-23T10:30:08.894Z,7612.00
2019-03-23T10:31:08.850Z,7500.00
2019-03-23T10:32:08.826Z,7292.00
2019-03-23T10:33:09.107Z,7220.00
2019-03-23T10:34:08.723Z,7228.00
2019-03-23T10:35:08.763Z,7060.00
2019-03-23T10:36:08.671Z,6972.00
2019-03-23T10:37:08.686Z,7028.00
2019-03-23T10:38:08.561Z,7308.00
2019-03-23T10:39:08.530Z,7708.00
2019-03-23T10:40:08.487Z,8176.00
2019-03-23T10:41:08.450Z,8744.00
2019-03-23T10:42:08.796Z,9524.00
2019-03-23T10:43:08.394Z,10648.00
2019-03-23T10:44:08.320Z,11956.00
2019-03-23T10:45:08.282Z,12920.00
2019-03-23T10:46:08.295Z,13832.00
2019-03-23T10:47:08.266Z,15800.00
2019-03-23T10:48:08.191Z,18688.00
2019-03-23T10:49:08.130Z,20896.00
2019-03-23T10:50:08.085Z,21088.00
2019-03-23T10:51:08.044Z,20128.00
2019-03-23T10:52:07.996Z,19616.00
2019-03-23T10:53:07.960Z,18720.00
2019-03-23T10:54:07.946Z,17728.00
2019-03-23T10:55:07.881Z,17760.00
2019-03-23T10:56:07.858Z,17856.00
2019-03-23T10:57:07.798Z,17208.00
2019-03-23T10:58:07.800Z,17124.00
2019-03-23T10:59:07.724Z,17728.00
2019-03-23T11:00:07.706Z,18112.00
2019-03-23T11:01:07.645Z,18560.00
2019-03-23T11:02:07.603Z,18976.00
2019-03-23T11:03:07.564Z,19296.00
2019-03-23T11:04:07.517Z,19392.00
2019-03-23T11:05:07.510Z,18656.00
2019-03-23T11:06:07.445Z,17600.00
2019-03-23T11:07:07.485Z,17000.00
2019-03-23T11:08:07.399Z,17856.00
2019-03-23T11:09:07.328Z,18912.00
2019-03-23T11:10:07.289Z,19328.00
2019-03-23T11:11:07.248Z,19360.00
2019-03-23T11:12:07.212Z,19840.00
2019-03-23T11:13:07.173Z,20928.00
2019-03-23T11:14:07.162Z,21664.00
2019-03-23T11:15:07.118Z,23296.00
2019-03-23T11:16:07.092Z,25440.00
2019-03-23T11:17:07.012Z,26592.00
2019-03-23T11:18:06.982Z,27008.00
2019-03-23T11:19:13.350Z,26368.00
2019-03-23T11:20:06.941Z,26304.00
2019-03-23T11:21:06.876Z,25728.00
2019-03-23T11:22:06.833Z,25824.00
2019-03-23T11:23:06.788Z,25952.00
2019-03-23T11:24:06.743Z,24960.00
2019-03-23T11:25:06.729Z,23552.00
2019-03-23T11:26:06.697Z,22592.00
2019-03-23T11:27:06.646Z,23360.00
2019-03-23T11:28:06.591Z,24800.00
2019-03-23T11:29:08.350Z,24864.00
2019-03-23T11:30:06.546Z,24576.00
2019-03-23T11:31:06.483Z,25920.00
2019-03-23T11:32:06.453Z,26880.00
2019-03-23T11:33:06.413Z,26496.00
2019-03-23T11:34:06.378Z,24608.00
2019-03-23T11:35:08.083Z,25088.00
2019-03-23T11:36:06.293Z,25632.00
2019-03-23T11:37:06.332Z,23040.00
2019-03-23T11:38:06.342Z,21888.00
2019-03-23T11:39:06.184Z,23360.00
2019-03-23T11:40:06.182Z,25120.00
2019-03-23T11:41:06.115Z,24576.00
2019-03-23T11:42:06.074Z,23840.00
2019-03-23T11:43:06.043Z,23264.00
2019-03-23T11:44:06.005Z,22144.00
2019-03-23T11:45:05.978Z,21088.00
2019-03-23T11:46:05.967Z,22624.00
2019-03-23T11:47:05.896Z,25376.00
2019-03-23T11:48:05.871Z,30624.00
2019-03-23T11:49:05.816Z,25088.00
2019-03-23T11:50:05.778Z,24064.00
2019-03-23T11:51:05.743Z,23776.00
2019-03-23T11:52:05.737Z,23008.00
2019-03-23T11:53:05.673Z,20992.00
2019-03-23T11:54:05.647Z,22656.00
2019-03-23T11:55:05.609Z,26432.00
2019-03-23T11:56:05.574Z,28608.00
2019-03-23T11:57:05.545Z,27712.00
2019-03-23T11:58:05.497Z,27840.00
2019-03-23T11:59:05.465Z,28192.00
2019-03-23T12:00:05.417Z,27744.00
2019-03-23T12:01:05.382Z,25760.00
2019-03-23T12:02:05.365Z,23584.00
2019-03-23T12:03:05.306Z,21184.00
2019-03-23T12:04:05.293Z,20576.00
2019-03-23T12:05:05.244Z,19200.00
2019-03-23T12:06:05.207Z,18496.00
2019-03-23T12:07:05.196Z,18464.00
2019-03-23T12:08:05.154Z,18368.00
2019-03-23T12:09:05.094Z,17856.00
2019-03-23T12:10:05.056Z,17536.00
2019-03-23T12:11:05.021Z,17472.00
2019-03-23T12:12:04.991Z,17536.00
2019-03-23T12:13:04.954Z,19072.00
2019-03-23T12:14:04.940Z,22208.00
2019-03-23T12:15:04.876Z,23776.00
2019-03-23T12:16:04.844Z,23680.00
2019-03-23T12:17:04.809Z,22912.00
2019-03-23T12:18:04.776Z,22272.00
2019-03-23T12:19:04.770Z,20256.00
2019-03-23T12:20:04.712Z,20256.00
2019-03-23T12:21:04.655Z,19744.00
2019-03-23T12:22:04.620Z,21536.00
2019-03-23T12:23:04.585Z,21888.00
2019-03-23T12:24:05.255Z,21088.00
2019-03-23T12:25:04.543Z,19616.00
2019-03-23T12:26:04.486Z,17664.00
2019-03-23T12:27:04.444Z,15772.00
2019-03-23T12:28:04.407Z,14476.00
2019-03-23T12:29:04.365Z,13236.00
2019-03-23T12:30:07.511Z,11972.00
2019-03-23T12:31:04.334Z,11172.00
2019-03-23T12:32:04.256Z,11164.00